Station: Neuburg / Donau, ICAO: ETSN, Synop: Synop: 10853,
Koordinaten: 4843'00''N 01113'00''E, Hoehe: 380m, Entfernung: 19.91km
2017/12/12 08:20
ETSN 120820Z 26006KT 9999 BKN034 03/M03 Q1006 BLU BLU


Station: Ingolstadt, ICAO: ETSI, Synop: Synop: 10860,
Koordinaten: 4843'00''N 01132'00''E, Hoehe: 367m, Entfernung: 31.02km
2017/12/12 08:20
ETSI 120820Z 30014KT 9999 BKN030 03/M03 Q1006 BLU BLU+ TEMPO BLU


Station: Roth, ICAO: ETHR, Synop: Synop: 10765,
Koordinaten: 4913'00''N 01106'00''E, Hoehe: 388m, Entfernung: 36.52km
2013/12/05 06:53
ETHR 050653Z 25004KT 1200 BR OVC003 02/02 Q1027 AMB


Station: FEUCHT (USA-AF), ICAO: EDIG, Synop: Synop: 10764,
Koordinaten: 49 23 N 011 11 E, Hoehe: 386m, Entfernung: 54.21km


Station: Augsburg, ICAO: EDMA, Synop: Synop: 10852,
Koordinaten: 4826'00''N 01056'00''E, Hoehe: 461m, Entfernung: 55.21km
2017/12/12 08:20
EDMA 120820Z 28009KT 9999 BKN035 02/M03 Q1006


Station: HOHENFELS (USAF), ICAO: EDIH, Synop: Synop: 10775,
Koordinaten: 49 13 N 011 49 E, Hoehe: 442m, Entfernung: 56.87km


mehr Wetter
WetterInfo - adds.pl 2.6.003 DL3EL © 2004-2017 [154900]